createdAt,value
2023-02-13T00:01:52.703Z,102979.16
2023-02-13T00:04:19.116Z,102979.16
2023-02-13T00:06:47.717Z,102980.63
2023-02-13T00:09:14.644Z,102985.41
2023-02-13T00:11:41.013Z,102977.13
2023-02-13T00:14:07.448Z,102984.31
2023-02-13T00:16:34.384Z,102979.16
2023-02-13T00:19:00.785Z,102967.34
2023-02-13T00:21:27.208Z,102966.09
2023-02-13T00:23:53.619Z,102964.06
2023-02-13T00:26:20.058Z,102963.31
2023-02-13T00:28:46.489Z,102967.91
2023-02-13T00:31:15.696Z,102962.75
2023-02-13T00:33:42.420Z,102973.47
2023-02-13T00:36:20.483Z,102967.38
2023-02-13T00:38:47.459Z,102972.88
2023-02-13T00:41:14.786Z,102964.06
2023-02-13T00:43:41.150Z,102969.22
2023-02-13T00:46:07.675Z,102962.56
2023-02-13T00:48:34.931Z,102961.84
2023-02-13T00:51:01.860Z,102960.94
2023-02-13T00:53:28.378Z,102959.06
2023-02-13T00:55:54.776Z,102957.03
2023-02-13T00:58:21.730Z,102962.38
2023-02-13T01:00:48.396Z,102967.00
2023-02-13T01:03:15.916Z,102970.69
2023-02-13T01:05:43.165Z,102962.41
2023-02-13T01:08:10.248Z,102965.88
2023-02-13T01:10:40.683Z,102959.63
2023-02-13T01:13:07.408Z,102960.91
2023-02-13T01:15:34.094Z,102959.06
2023-02-13T01:18:00.917Z,102957.97
2023-02-13T01:20:28.500Z,102959.25
2023-02-13T01:22:55.346Z,102957.97
2023-02-13T01:25:22.125Z,102967.56
2023-02-13T01:27:48.521Z,102964.59
2023-02-13T01:30:16.011Z,102965.53
2023-02-13T01:32:43.537Z,102970.31
2023-02-13T01:35:11.238Z,102970.69
2023-02-13T01:37:38.919Z,102964.06
2023-02-13T01:40:07.301Z,102967.31
2023-02-13T01:42:35.074Z,102957.41
2023-02-13T01:45:04.399Z,102959.06
2023-02-13T01:47:45.497Z,102961.84
2023-02-13T01:50:19.228Z,102960.34
2023-02-13T01:52:49.893Z,102965.16
2023-02-13T01:55:16.979Z,102958.88
2023-02-13T01:57:47.166Z,102966.59
2023-02-13T02:00:15.811Z,102963.69
2023-02-13T02:02:46.895Z,102951.53
2023-02-13T02:05:13.482Z,102944.53
2023-02-13T02:07:41.426Z,102937.16
2023-02-13T02:10:18.791Z,102941.75
2023-02-13T02:12:53.684Z,102944.50
2023-02-13T02:15:20.190Z,102943.59
2023-02-13T02:17:46.682Z,102943.06
2023-02-13T02:20:43.942Z,102935.69
2023-02-13T02:23:44.500Z,102934.41
2023-02-13T02:26:41.954Z,102934.03
2023-02-13T02:29:34.322Z,102935.88
2023-02-13T02:32:19.448Z,102936.06
2023-02-13T02:34:58.601Z,102936.44
2023-02-13T02:37:56.312Z,102930.72
2023-02-13T02:40:57.821Z,102930.50
2023-02-13T02:43:44.018Z,102930.16
2023-02-13T02:46:21.407Z,102926.84
2023-02-13T02:49:22.658Z,102925.38
2023-02-13T02:52:01.960Z,102933.47
2023-02-13T02:55:03.138Z,102923.19
2023-02-13T02:57:51.590Z,102919.84
2023-02-13T03:00:39.076Z,102916.88
2023-02-13T03:03:30.536Z,102911.34
2023-02-13T03:06:13.837Z,102915.22
2023-02-13T03:09:00.826Z,102905.28
2023-02-13T03:11:46.508Z,102912.28
2023-02-13T03:14:15.212Z,102919.28
2023-02-13T03:17:00.138Z,102917.66
2023-02-13T03:19:54.225Z,102918.00
2023-02-13T03:22:37.152Z,102920.00
2023-02-13T03:25:18.752Z,102916.34
2023-02-13T03:28:17.938Z,102919.84
2023-02-13T03:31:00.943Z,102918.19
2023-02-13T03:33:34.349Z,102914.31
2023-02-13T03:37:02.169Z,102922.41
2023-02-13T03:39:48.570Z,102922.63
2023-02-13T03:42:54.037Z,102925.16
2023-02-13T03:45:50.098Z,102931.63
2023-02-13T03:48:49.228Z,102927.97
2023-02-13T03:51:24.965Z,102937.53
2023-02-13T03:53:56.172Z,102944.53
2023-02-13T03:56:41.770Z,102945.06
2023-02-13T03:59:17.039Z,102937.13
2023-02-13T04:01:51.842Z,102931.97
2023-02-13T04:04:25.687Z,102939.38
2023-02-13T04:07:00.155Z,102938.63
2023-02-13T04:09:28.302Z,102933.31
2023-02-13T04:12:06.452Z,102936.06
2023-02-13T04:14:51.511Z,102928.31
2023-02-13T04:17:23.572Z,102929.06
2023-02-13T04:19:50.117Z,102932.75
2023-02-13T04:22:16.640Z,102928.31
2023-02-13T04:24:43.085Z,102932.75
2023-02-13T04:27:13.995Z,102936.81
2023-02-13T04:29:40.387Z,102937.16
2023-02-13T04:32:06.800Z,102936.59
2023-02-13T04:34:33.225Z,102939.72
2023-02-13T04:36:59.582Z,102942.84
2023-02-13T04:39:25.998Z,102938.63
2023-02-13T04:41:52.382Z,102936.06
2023-02-13T04:44:18.748Z,102938.25
2023-02-13T04:46:45.147Z,102944.66
2023-02-13T04:49:11.579Z,102948.69
2023-02-13T04:51:38.066Z,102946.47
2023-02-13T04:54:04.555Z,102942.09
2023-02-13T04:56:30.935Z,102943.34
2023-02-13T04:58:57.287Z,102942.81
2023-02-13T05:01:23.792Z,102940.41
2023-02-13T05:03:50.227Z,102932.69
2023-02-13T05:06:16.564Z,102935.25
2023-02-13T05:08:43.186Z,102936.94
2023-02-13T05:11:09.692Z,102937.34
2023-02-13T05:13:36.173Z,102934.19
2023-02-13T05:16:02.621Z,102930.50
2023-02-13T05:18:28.990Z,102935.47
2023-02-13T05:21:13.910Z,102933.09
2023-02-13T05:23:40.478Z,102935.66
2023-02-13T05:26:06.824Z,102936.38
2023-02-13T05:28:51.731Z,102929.97
2023-02-13T05:31:18.153Z,102926.44
2023-02-13T05:33:44.612Z,102928.66
2023-02-13T05:36:11.037Z,102926.66
2023-02-13T05:38:37.429Z,102922.41
2023-02-13T05:41:03.824Z,102930.13
2023-02-13T05:43:30.600Z,102927.75
2023-02-13T05:46:07.991Z,102914.28
2023-02-13T05:48:34.543Z,102925.34
2023-02-13T05:51:01.370Z,102919.44
2023-02-13T05:53:27.775Z,102918.72
2023-02-13T05:55:54.145Z,102918.38
2023-02-13T05:58:20.921Z,102915.63
2023-02-13T06:00:47.659Z,102923.50
2023-02-13T06:03:14.647Z,102932.38
2023-02-13T06:05:41.177Z,102930.50
2023-02-13T06:08:07.573Z,102936.59
2023-02-13T06:10:33.938Z,102932.00
2023-02-13T06:13:00.385Z,102933.81
2023-02-13T06:15:26.783Z,102933.44
2023-02-13T06:17:53.217Z,102940.81
2023-02-13T06:20:19.690Z,102928.31
2023-02-13T06:22:50.653Z,102939.72
2023-02-13T06:25:17.277Z,102937.34
2023-02-13T06:27:43.684Z,102938.25
2023-02-13T06:30:10.624Z,102935.84
2023-02-13T06:32:37.010Z,102934.53
2023-02-13T06:35:05.567Z,102941.91
2023-02-13T06:37:32.353Z,102946.34
2023-02-13T06:39:58.749Z,102938.59
2023-02-13T06:42:25.221Z,102938.19
2023-02-13T06:44:51.827Z,102931.06
2023-02-13T06:47:18.221Z,102933.22
2023-02-13T06:49:44.612Z,102944.25
2023-02-13T06:52:10.985Z,102942.25
2023-02-13T06:54:46.760Z,102943.16
2023-02-13T06:57:14.264Z,102941.47
2023-02-13T06:59:40.636Z,102938.53
2023-02-13T07:02:07.126Z,102935.19
2023-02-13T07:04:33.498Z,102939.03
2023-02-13T07:06:59.867Z,102944.94
2023-02-13T07:09:26.374Z,102943.00
2023-02-13T07:11:52.762Z,102949.03
2023-02-13T07:14:19.150Z,102945.72
2023-02-13T07:16:45.509Z,102956.72
2023-02-13T07:19:12.009Z,102956.91
2023-02-13T07:21:38.413Z,102955.91
2023-02-13T07:24:07.893Z,102962.63
2023-02-13T07:26:34.458Z,102968.56
2023-02-13T07:29:11.539Z,102965.53
2023-02-13T07:31:39.234Z,102969.63
2023-02-13T07:34:05.856Z,102970.16
2023-02-13T07:36:32.229Z,102964.78
2023-02-13T07:38:58.606Z,102975.56
2023-02-13T07:41:27.883Z,102973.31
2023-02-13T07:43:55.396Z,102978.72
2023-02-13T07:46:21.925Z,102980.97
2023-02-13T07:48:48.450Z,102981.78
2023-02-13T07:51:15.880Z,102980.72
2023-02-13T07:53:42.278Z,102975.94
2023-02-13T07:56:09.419Z,102975.41
2023-02-13T07:58:37.834Z,102979.63
2023-02-13T08:01:09.250Z,102978.56
2023-02-13T08:03:36.131Z,102974.75
2023-02-13T08:06:02.921Z,102981.75
2023-02-13T08:08:29.341Z,102985.03
2023-02-13T08:11:14.657Z,102980.88
2023-02-13T08:13:41.344Z,102984.19
2023-02-13T08:16:07.799Z,102979.94
2023-02-13T08:18:34.177Z,102989.38
2023-02-13T08:21:03.497Z,102986.13
2023-02-13T08:23:29.919Z,102990.72
2023-02-13T08:26:00.084Z,102989.19
2023-02-13T08:28:26.895Z,102994.84
2023-02-13T08:30:53.372Z,102987.34
2023-02-13T08:33:19.759Z,102997.19
2023-02-13T08:35:46.134Z,102995.28
2023-02-13T08:38:12.618Z,102995.88
2023-02-13T08:40:39.046Z,102992.06
2023-02-13T08:43:06.341Z,102993.63
2023-02-13T08:45:33.100Z,102988.81
2023-02-13T08:48:00.465Z,102982.81
2023-02-13T08:50:27.747Z,102980.47
2023-02-13T08:52:54.294Z,102981.13
2023-02-13T08:55:20.803Z,102976.47
2023-02-13T08:57:47.257Z,102971.69
2023-02-13T09:00:14.584Z,102971.34
2023-02-13T09:02:41.070Z,102970.44
2023-02-13T09:05:07.705Z,102966.97
2023-02-13T09:07:34.136Z,102966.53
2023-02-13T09:10:00.577Z,102969.91
2023-02-13T09:12:26.970Z,102968.09
2023-02-13T09:14:53.362Z,102965.69
2023-02-13T09:17:19.762Z,102967.75
2023-02-13T09:19:47.271Z,102971.06
2023-02-13T09:22:15.375Z,102965.53
2023-02-13T09:24:41.744Z,102964.22
2023-02-13T09:27:08.824Z,102973.63
2023-02-13T09:29:35.260Z,102965.91
2023-02-13T09:32:01.704Z,102968.13
2023-02-13T09:34:28.167Z,102962.75
2023-02-13T09:36:54.683Z,102964.41
2023-02-13T09:39:21.101Z,102959.75
2023-02-13T09:41:50.042Z,102965.13
2023-02-13T09:44:35.682Z,102957.94
2023-02-13T09:47:14.927Z,102964.56
2023-02-13T09:49:44.690Z,102962.69
2023-02-13T09:52:11.301Z,102962.13
2023-02-13T09:54:37.925Z,102970.47
2023-02-13T09:57:27.881Z,102961.44
2023-02-13T10:00:01.975Z,102967.34
2023-02-13T10:02:34.182Z,102965.91
2023-02-13T10:05:06.604Z,102966.81
2023-02-13T10:07:51.048Z,102970.56
2023-02-13T10:10:28.421Z,102963.06
2023-02-13T10:12:57.612Z,102962.50
2023-02-13T10:15:39.198Z,102960.50
2023-02-13T10:18:31.933Z,102960.97
2023-02-13T10:21:02.345Z,102959.94
2023-02-13T10:23:35.100Z,102960.53
2023-02-13T10:26:04.180Z,102960.88
2023-02-13T10:28:35.189Z,102968.63
2023-02-13T10:31:06.789Z,102963.44
2023-02-13T10:33:56.269Z,102961.63
2023-02-13T10:36:26.726Z,102958.38
2023-02-13T10:39:00.570Z,102955.78
2023-02-13T10:41:48.116Z,102955.66
2023-02-13T10:44:32.783Z,102954.06
2023-02-13T10:47:44.901Z,102965.56
2023-02-13T10:50:27.228Z,102956.25
2023-02-13T10:53:12.936Z,102953.19
2023-02-13T10:55:54.481Z,102948.06
2023-02-13T10:58:28.914Z,102939.06
2023-02-13T11:00:57.850Z,102939.66
2023-02-13T11:03:28.529Z,102931.91
2023-02-13T11:05:56.278Z,102930.38
2023-02-13T11:08:24.260Z,102921.81
2023-02-13T11:10:51.752Z,102917.78
2023-02-13T11:13:20.752Z,102922.78
2023-02-13T11:16:04.046Z,102911.28
2023-02-13T11:18:39.889Z,102914.28
2023-02-13T11:21:08.420Z,102915.28
2023-02-13T11:23:41.026Z,102908.88
2023-02-13T11:26:10.582Z,102899.97
2023-02-13T11:28:39.998Z,102918.41
2023-02-13T11:31:20.531Z,102902.44
2023-02-13T11:33:47.063Z,102902.78
2023-02-13T11:36:38.193Z,102910.75
2023-02-13T11:39:18.655Z,102902.34
2023-02-13T11:41:46.379Z,102905.56
2023-02-13T11:44:24.059Z,102894.81
2023-02-13T11:46:52.697Z,102896.75
2023-02-13T11:49:21.637Z,102892.78
2023-02-13T11:51:53.202Z,102894.41
2023-02-13T11:54:39.294Z,102897.09
2023-02-13T11:57:22.398Z,102900.94
2023-02-13T11:59:51.594Z,102892.34
2023-02-13T12:02:22.596Z,102891.81
2023-02-13T12:04:54.630Z,102894.00
2023-02-13T12:07:23.610Z,102886.50
2023-02-13T12:10:19.176Z,102878.03
2023-02-13T12:12:48.307Z,102874.97
2023-02-13T12:15:21.027Z,102871.22
2023-02-13T12:17:53.694Z,102864.16
2023-02-13T12:20:20.830Z,102860.38
2023-02-13T12:23:05.796Z,102858.88
2023-02-13T12:25:35.237Z,102858.63
2023-02-13T12:28:17.284Z,102848.06
2023-02-13T12:31:09.548Z,102850.69
2023-02-13T12:34:08.120Z,102839.09
2023-02-13T12:36:50.600Z,102843.22
2023-02-13T12:39:36.621Z,102831.72
2023-02-13T12:42:22.327Z,102831.50
2023-02-13T12:45:03.194Z,102831.31
2023-02-13T12:47:31.605Z,102839.41
2023-02-13T12:50:35.120Z,102830.66
2023-02-13T12:53:28.424Z,102824.22
2023-02-13T12:56:02.069Z,102820.75
2023-02-13T12:58:53.364Z,102817.31
2023-02-13T13:01:41.502Z,102816.56
2023-02-13T13:04:16.803Z,102809.22
2023-02-13T13:06:46.158Z,102807.38
2023-02-13T13:09:41.880Z,102809.75
2023-02-13T13:12:34.449Z,102803.25
2023-02-13T13:15:21.256Z,102803.34
2023-02-13T13:18:20.152Z,102808.75
2023-02-13T13:21:05.033Z,102807.22
2023-02-13T13:23:33.852Z,102799.53
2023-02-13T13:26:09.240Z,102793.97
2023-02-13T13:28:39.265Z,102794.31
2023-02-13T13:31:06.000Z,102787.78
2023-02-13T13:33:33.605Z,102783.28
2023-02-13T13:36:21.848Z,102786.38
2023-02-13T13:38:59.996Z,102786.38
2023-02-13T13:42:02.305Z,102773.97
2023-02-13T13:44:42.124Z,102782.16
2023-02-13T13:47:24.114Z,102773.13
2023-02-13T13:49:58.936Z,102776.03
2023-02-13T13:52:34.053Z,102775.16
2023-02-13T13:55:02.527Z,102776.34
2023-02-13T13:57:41.017Z,102771.03
2023-02-13T14:00:07.624Z,102774.34
2023-02-13T14:02:48.833Z,102770.78
2023-02-13T14:05:32.677Z,102770.84
2023-02-13T14:08:01.262Z,102756.94
2023-02-13T14:10:27.531Z,102759.38
2023-02-13T14:12:56.781Z,102752.44
2023-02-13T14:15:38.408Z,102748.88
2023-02-13T14:18:13.738Z,102744.84
2023-02-13T14:20:52.274Z,102736.41
2023-02-13T14:23:42.919Z,102732.56
2023-02-13T14:26:17.646Z,102721.41
2023-02-13T14:28:49.929Z,102716.72
2023-02-13T14:31:27.441Z,102712.16
2023-02-13T14:33:58.328Z,102720.69
2023-02-13T14:36:32.137Z,102723.75
2023-02-13T14:39:02.088Z,102713.03
2023-02-13T14:41:44.317Z,102710.59
2023-02-13T14:44:32.728Z,102714.88
2023-02-13T14:47:03.172Z,102709.88
2023-02-13T14:49:32.551Z,102728.69
2023-02-13T14:52:02.670Z,102717.13
2023-02-13T14:54:33.098Z,102724.34
2023-02-13T14:57:12.168Z,102726.25
2023-02-13T14:59:40.838Z,102730.00
2023-02-13T15:02:22.705Z,102724.59
2023-02-13T15:05:02.372Z,102739.63
2023-02-13T15:07:36.044Z,102735.91
2023-02-13T15:10:06.147Z,102730.22
2023-02-13T15:12:35.000Z,102720.34
2023-02-13T15:15:02.933Z,102716.75
2023-02-13T15:17:41.024Z,102719.97
2023-02-13T15:20:43.140Z,102720.44
2023-02-13T15:23:20.587Z,102724.22
2023-02-13T15:25:47.076Z,102723.13
2023-02-13T15:28:19.956Z,102718.28
2023-02-13T15:31:03.468Z,102721.91
2023-02-13T15:33:53.672Z,102714.16
2023-02-13T15:36:27.982Z,102717.34
2023-02-13T15:39:03.752Z,102722.09
2023-02-13T15:41:35.973Z,102728.25
2023-02-13T15:44:02.234Z,102720.31
2023-02-13T15:46:35.427Z,102730.16
2023-02-13T15:49:07.178Z,102725.09
2023-02-13T15:51:34.688Z,102718.13
2023-02-13T15:54:03.983Z,102712.41
2023-02-13T15:56:31.412Z,102721.59
2023-02-13T15:58:59.092Z,102722.00
2023-02-13T16:01:25.476Z,102714.81
2023-02-13T16:04:03.438Z,102714.78
2023-02-13T16:06:30.215Z,102721.19
2023-02-13T16:08:58.293Z,102728.66
2023-02-13T16:11:24.681Z,102723.06
2023-02-13T16:13:57.891Z,102727.81
2023-02-13T16:16:24.833Z,102725.94
2023-02-13T16:18:51.743Z,102723.81
2023-02-13T16:21:25.475Z,102722.25
2023-02-13T16:24:01.038Z,102724.38
2023-02-13T16:26:27.603Z,102718.38
2023-02-13T16:28:55.669Z,102717.97
2023-02-13T16:31:22.600Z,102708.09
2023-02-13T16:33:49.417Z,102717.91
2023-02-13T16:36:15.734Z,102712.34
2023-02-13T16:38:51.165Z,102711.88
2023-02-13T16:41:17.497Z,102723.38
2023-02-13T16:43:48.736Z,102718.56
2023-02-13T16:46:15.009Z,102717.84
2023-02-13T16:48:42.369Z,102710.59
2023-02-13T16:51:08.836Z,102721.50
2023-02-13T16:53:35.692Z,102730.06
2023-02-13T16:56:13.102Z,102728.38
2023-02-13T16:58:39.778Z,102730.13
2023-02-13T17:01:06.306Z,102737.44
2023-02-13T17:03:32.877Z,102746.88
2023-02-13T17:06:03.260Z,102737.56
2023-02-13T17:08:30.914Z,102743.28
2023-02-13T17:11:05.953Z,102743.72
2023-02-13T17:13:33.157Z,102750.84
2023-02-13T17:16:00.035Z,102753.13
2023-02-13T17:18:27.424Z,102760.91
2023-02-13T17:20:54.189Z,102755.75
2023-02-13T17:23:25.046Z,102757.25
2023-02-13T17:25:53.672Z,102751.38
2023-02-13T17:28:25.525Z,102762.06
2023-02-13T17:30:54.241Z,102763.19
2023-02-13T17:33:25.730Z,102761.00
2023-02-13T17:35:52.489Z,102764.69
2023-02-13T17:38:18.891Z,102768.41
2023-02-13T17:40:45.582Z,102771.38
2023-02-13T17:43:13.213Z,102769.75
2023-02-13T17:45:39.918Z,102769.94
2023-02-13T17:48:06.480Z,102773.25
2023-02-13T17:50:33.870Z,102774.22
2023-02-13T17:53:05.736Z,102766.13
2023-02-13T17:55:33.388Z,102771.84
2023-02-13T17:58:00.149Z,102771.81
2023-02-13T18:00:29.081Z,102772.41
2023-02-13T18:02:56.513Z,102774.97
2023-02-13T18:05:22.908Z,102774.03
2023-02-13T18:07:49.476Z,102775.34
2023-02-13T18:10:36.920Z,102771.50
2023-02-13T18:13:04.360Z,102768.72
2023-02-13T18:15:35.922Z,102778.66
2023-02-13T18:18:02.334Z,102768.56
2023-02-13T18:20:28.730Z,102772.75
2023-02-13T18:22:55.082Z,102773.31
2023-02-13T18:25:21.800Z,102774.78
2023-02-13T18:27:48.444Z,102784.34
2023-02-13T18:30:18.323Z,102780.69
2023-02-13T18:32:44.736Z,102782.13
2023-02-13T18:35:11.309Z,102786.00
2023-02-13T18:37:39.044Z,102782.13
2023-02-13T18:40:07.763Z,102785.44
2023-02-13T18:42:35.817Z,102784.31
2023-02-13T18:45:02.897Z,102788.34
2023-02-13T18:47:29.271Z,102785.78
2023-02-13T18:49:55.602Z,102786.13
2023-02-13T18:52:21.979Z,102791.06
2023-02-13T18:54:48.334Z,102783.53
2023-02-13T18:57:14.996Z,102787.56
2023-02-13T18:59:41.361Z,102794.72
2023-02-13T19:02:09.483Z,102797.81
2023-02-13T19:04:35.910Z,102790.63
2023-02-13T19:07:02.254Z,102779.78
2023-02-13T19:09:28.675Z,102786.00
2023-02-13T19:11:55.245Z,102788.91
2023-02-13T19:14:22.593Z,102786.31
2023-02-13T19:16:48.948Z,102787.06
2023-02-13T19:19:15.299Z,102789.28
2023-02-13T19:21:41.742Z,102782.50
2023-02-13T19:24:09.560Z,102791.81
2023-02-13T19:26:36.450Z,102787.03
2023-02-13T19:29:03.536Z,102789.44
2023-02-13T19:31:30.898Z,102790.56
2023-02-13T19:33:57.370Z,102783.94
2023-02-13T19:36:26.031Z,102785.94
2023-02-13T19:39:00.922Z,102782.28
2023-02-13T19:41:28.899Z,102785.06
2023-02-13T19:43:55.880Z,102777.66
2023-02-13T19:46:24.804Z,102787.06
2023-02-13T19:48:51.203Z,102787.41
2023-02-13T19:51:24.329Z,102790.31
2023-02-13T19:54:01.325Z,102789.63
2023-02-13T19:56:28.688Z,102789.22
2023-02-13T19:58:55.471Z,102785.91
2023-02-13T20:01:23.902Z,102789.13
2023-02-13T20:03:50.794Z,102787.66
2023-02-13T20:06:31.028Z,102788.00
2023-02-13T20:08:58.718Z,102792.50
2023-02-13T20:11:25.117Z,102785.88
2023-02-13T20:13:55.943Z,102790.81
2023-02-13T20:16:23.123Z,102786.19
2023-02-13T20:18:49.956Z,102792.38
2023-02-13T20:21:17.422Z,102794.78
2023-02-13T20:23:50.475Z,102792.72
2023-02-13T20:26:17.239Z,102790.31
2023-02-13T20:28:44.977Z,102790.13
2023-02-13T20:31:20.205Z,102787.69
2023-02-13T20:33:47.453Z,102788.94
2023-02-13T20:36:19.257Z,102779.53
2023-02-13T20:38:45.754Z,102785.47
2023-02-13T20:41:14.928Z,102783.09
2023-02-13T20:43:41.659Z,102776.91
2023-02-13T20:46:08.579Z,102782.72
2023-02-13T20:48:45.524Z,102782.66
2023-02-13T20:51:14.164Z,102777.88
2023-02-13T20:53:41.500Z,102784.69
2023-02-13T20:56:10.438Z,102780.59
2023-02-13T20:58:37.824Z,102782.56
2023-02-13T21:01:11.405Z,102778.25
2023-02-13T21:03:37.834Z,102784.41
2023-02-13T21:06:04.616Z,102788.34
2023-02-13T21:08:31.193Z,102781.47
2023-02-13T21:11:02.620Z,102780.31
2023-02-13T21:13:29.031Z,102786.09
2023-02-13T21:16:03.531Z,102788.47
2023-02-13T21:18:29.957Z,102797.38
2023-02-13T21:20:57.407Z,102785.91
2023-02-13T21:23:23.933Z,102789.59
2023-02-13T21:25:50.387Z,102788.38
2023-02-13T21:28:16.763Z,102781.13
2023-02-13T21:30:43.617Z,102784.22
2023-02-13T21:33:10.030Z,102788.31
2023-02-13T21:35:36.433Z,102789.03
2023-02-13T21:38:02.816Z,102797.41
2023-02-13T21:40:29.169Z,102800.41
2023-02-13T21:42:55.536Z,102796.41
2023-02-13T21:45:21.916Z,102800.00
2023-02-13T21:47:48.335Z,102792.22
2023-02-13T21:50:14.693Z,102802.97
2023-02-13T21:52:41.064Z,102796.03
2023-02-13T21:55:08.875Z,102791.22
2023-02-13T21:57:35.873Z,102783.72
2023-02-13T22:00:03.975Z,102791.59
2023-02-13T22:02:30.463Z,102789.56
2023-02-13T22:04:56.883Z,102787.91
2023-02-13T22:07:23.244Z,102792.97
2023-02-13T22:09:50.011Z,102786.69
2023-02-13T22:12:16.391Z,102783.75
2023-02-13T22:14:42.758Z,102785.78
2023-02-13T22:17:09.212Z,102783.22
2023-02-13T22:19:35.622Z,102789.97
2023-02-13T22:22:01.984Z,102791.50
2023-02-13T22:24:28.353Z,102790.59
2023-02-13T22:26:55.049Z,102795.38
2023-02-13T22:29:23.702Z,102794.16
2023-02-13T22:31:50.231Z,102788.81
2023-02-13T22:34:16.846Z,102795.06
2023-02-13T22:36:43.364Z,102790.97
2023-02-13T22:39:10.869Z,102798.44
2023-02-13T22:41:37.680Z,102790.16
2023-02-13T22:44:04.196Z,102788.19
2023-02-13T22:46:32.237Z,102795.78
2023-02-13T22:48:59.187Z,102797.38
2023-02-13T22:51:31.509Z,102794.75
2023-02-13T22:53:58.281Z,102794.41
2023-02-13T22:56:25.512Z,102790.44
2023-02-13T22:58:52.121Z,102790.53
2023-02-13T23:01:20.406Z,102784.78
2023-02-13T23:03:47.059Z,102785.53
2023-02-13T23:06:14.663Z,102786.84
2023-02-13T23:08:41.621Z,102783.47
2023-02-13T23:11:29.434Z,102786.16
2023-02-13T23:13:56.336Z,102787.41
2023-02-13T23:16:23.777Z,102781.84
2023-02-13T23:18:51.643Z,102791.06
2023-02-13T23:21:18.317Z,102783.50
2023-02-13T23:23:44.701Z,102773.81
2023-02-13T23:26:11.159Z,102773.34
2023-02-13T23:28:37.546Z,102774.13
2023-02-13T23:31:04.229Z,102778.16
2023-02-13T23:33:31.088Z,102776.59
2023-02-13T23:35:57.459Z,102774.66
2023-02-13T23:38:24.305Z,102774.22
2023-02-13T23:40:50.688Z,102773.88
2023-02-13T23:43:17.082Z,102779.28
2023-02-13T23:45:43.498Z,102778.25
2023-02-13T23:48:11.689Z,102781.13
2023-02-13T23:50:38.472Z,102779.66
2023-02-13T23:53:04.839Z,102781.84
2023-02-13T23:55:31.227Z,102782.28
2023-02-13T23:57:57.596Z,102784.19
